Terminal Aerodrome Forecast
Issued by NWS

Home | Current Version | Previous Version | Text Only | Print | Product List | Glossary On
Versions: 1 2 3 4 5 6 7 8 9 10 11 12 13 14 15 16 17
000
FTUS42 TJSJ 220500
TAFJMZ
TAF
TJMZ 220521Z 2206/2306 VRB05KT P6SM SCT025 SCT060
     FM221530 27010KT P6SM SCT025 BKN040
     FM222200 06005KT P6SM SCT025 SCT040
      AMD NOT SKED TIL 221100=

USA.gov is the U.S. government's official web portal to all federal, state and local government web resources and services.